Time,TemperatureF,DewpointF,PressureIn,WindDirection,WindDirectionDegrees,WindSpeedMPH,WindSpeedGustMPH,Humidity,HourlyPrecipIn,Conditions,Clouds,dailyrainin,SoftwareType,DateUTC
2013-12-29 00:00:00,13.9,10.0,30.17,NNW,335,10.0,10.0,84,0.00,,,0.00,Wunderground v.1.15,2013-12-29 06:00:00,
2013-12-29 00:05:00,13.5,9.3,30.18,NNE,13,10.0,10.0,83,0.00,,,0.00,Wunderground v.1.15,2013-12-29 06:05:00,
2013-12-29 00:10:00,13.4,9.2,30.18,ENE,64,10.0,11.0,83,0.00,,,0.00,Wunderground v.1.15,2013-12-29 06:10:00,
2013-12-29 00:20:00,13.0,8.8,30.19,North,359,10.0,15.0,83,0.00,,,0.00,Wunderground v.1.15,2013-12-29 06:20:00,
2013-12-29 00:25:00,12.9,8.7,30.19,NNW,337,8.0,15.0,83,0.00,,,0.00,Wunderground v.1.15,2013-12-29 06:25:00,
2013-12-29 00:35:00,12.4,8.2,30.19,NNE,17,8.0,9.0,83,0.00,,,0.00,Wunderground v.1.15,2013-12-29 06:35:00,
2013-12-29 00:40:00,12.3,8.1,30.20,NW,325,8.0,8.0,83,0.00,,,0.00,Wunderground v.1.15,2013-12-29 06:40:00,
2013-12-29 00:50:00,11.8,7.4,30.20,North,354,10.0,13.0,82,0.00,,,0.00,Wunderground v.1.15,2013-12-29 06:50:00,
2013-12-29 01:00:00,11.5,6.8,30.21,NNW,341,10.0,10.0,81,0.00,,,0.00,Wunderground v.1.15,2013-12-29 07:00:00,
2013-12-29 01:05:00,11.2,6.5,30.22,North,8,9.0,12.0,81,0.00,,,0.00,Wunderground v.1.15,2013-12-29 07:05:00,
2013-12-29 01:15:00,10.7,5.7,30.23,NNW,330,11.0,11.0,80,0.00,,,0.00,Wunderground v.1.15,2013-12-29 07:15:00,
2013-12-29 01:25:00,10.2,5.3,30.23,NNW,331,10.0,13.0,80,0.00,,,0.00,Wunderground v.1.15,2013-12-29 07:25:00,
2013-12-29 01:35:00,9.6,4.7,30.24,North,354,11.0,21.0,80,0.00,,,0.00,Wunderground v.1.15,2013-12-29 07:35:00,
2013-12-29 01:45:00,8.7,3.5,30.25,NW,323,12.0,12.0,79,0.00,,,0.00,Wunderground v.1.15,2013-12-29 07:45:00,
2013-12-29 01:50:00,8.3,3.1,30.25,North,359,12.0,12.0,79,0.00,,,0.00,Wunderground v.1.15,2013-12-29 07:50:00,
2013-12-29 02:00:00,7.8,2.9,30.26,North,4,9.0,12.0,80,0.00,,,0.00,Wunderground v.1.15,2013-12-29 08:00:00,
2013-12-29 02:05:00,7.2,2.1,30.26,NNW,328,10.0,12.0,79,0.00,,,0.00,Wunderground v.1.15,2013-12-29 08:05:00,
2013-12-29 02:15:00,6.6,1.5,30.27,NNW,330,10.0,11.0,79,0.00,,,0.00,Wunderground v.1.15,2013-12-29 08:15:00,
2013-12-29 02:25:00,6.3,1.2,30.28,NE,36,10.0,18.0,79,0.00,,,0.00,Wunderground v.1.15,2013-12-29 08:25:00,
2013-12-29 02:35:00,6.1,1.0,30.29,North,354,11.0,14.0,79,0.00,,,0.00,Wunderground v.1.15,2013-12-29 08:35:00,
2013-12-29 02:45:00,5.9,0.8,30.29,NNE,14,10.0,11.0,79,0.00,,,0.00,Wunderground v.1.15,2013-12-29 08:45:00,
2013-12-29 02:50:00,5.8,1.0,30.29,NNW,347,8.0,8.0,80,0.00,,,0.00,Wunderground v.1.15,2013-12-29 08:50:00,
2013-12-29 03:00:00,5.2,0.1,30.30,NNW,345,8.0,9.0,79,0.00,,,0.00,Wunderground v.1.15,2013-12-29 09:00:00,
2013-12-29 03:10:00,4.7,-0.4,30.30,North,4,9.0,9.0,79,0.00,,,0.00,Wunderground v.1.15,2013-12-29 09:10:00,
2013-12-29 03:20:00,4.4,-0.9,30.30,NNE,14,9.0,9.0,78,0.00,,,0.00,Wunderground v.1.15,2013-12-29 09:20:00,
2013-12-29 03:30:00,4.0,-1.1,30.31,NNW,330,9.0,9.0,79,0.00,,,0.00,Wunderground v.1.15,2013-12-29 09:30:00,
2013-12-29 03:40:00,2.0,-2.8,30.31,NW,320,7.0,7.0,80,0.00,,,0.00,Wunderground v.1.15,2013-12-29 09:40:00,
2013-12-29 03:45:00,1.5,-3.0,30.32,NNW,334,6.0,7.0,81,0.00,,,0.00,Wunderground v.1.15,2013-12-29 09:45:00,
2013-12-29 03:55:00,1.1,-3.4,30.31,NNW,327,7.0,7.0,81,0.00,,,0.00,Wunderground v.1.15,2013-12-29 09:55:00,
2013-12-29 04:00:00,0.9,-3.6,30.31,North,10,7.0,7.0,81,0.00,,,0.00,Wunderground v.1.15,2013-12-29 10:00:00,
2013-12-29 04:05:00,0.7,-3.8,30.32,NW,315,7.0,7.0,81,0.00,,,0.00,Wunderground v.1.15,2013-12-29 10:05:00,
2013-12-29 04:15:00,0.4,-4.1,30.33,NW,323,6.0,10.0,81,0.00,,,0.00,Wunderground v.1.15,2013-12-29 10:15:00,
2013-12-29 04:20:00,0.0,-4.4,30.33,NW,326,6.0,8.0,81,0.00,,,0.00,Wunderground v.1.15,2013-12-29 10:20:00,
2013-12-29 04:30:00,-0.7,-5.4,30.34,NW,314,6.0,9.0,80,0.00,,,0.00,Wunderground v.1.15,2013-12-29 10:30:00,
2013-12-29 04:35:00,-1.0,-5.7,30.34,North,359,6.0,12.0,80,0.00,,,0.00,Wunderground v.1.15,2013-12-29 10:35:00,
2013-12-29 04:45:00,-1.8,-6.5,30.35,NW,324,7.0,11.0,80,0.00,,,0.00,Wunderground v.1.15,2013-12-29 10:45:00,
2013-12-29 04:50:00,-2.2,-6.9,30.35,North,359,7.0,7.0,80,0.00,,,0.00,Wunderground v.1.15,2013-12-29 10:50:00,
2013-12-29 05:00:00,-2.7,-7.3,30.36,NNW,331,8.0,9.0,80,0.00,,,0.00,Wunderground v.1.15,2013-12-29 11:00:00,
2013-12-29 05:05:00,-3.0,-7.6,30.36,North,10,7.0,9.0,80,0.00,,,0.00,Wunderground v.1.15,2013-12-29 11:05:00,
2013-12-29 05:15:00,-3.5,-8.1,30.36,WNW,292,8.0,8.0,80,0.00,,,0.00,Wunderground v.1.15,2013-12-29 11:15:00,
2013-12-29 05:20:00,-3.7,-8.3,30.36,North,349,6.0,6.0,80,0.00,,,0.00,Wunderground v.1.15,2013-12-29 11:20:00,
2013-12-29 05:30:00,-4.1,-8.7,30.37,North,354,6.0,7.0,80,0.00,,,0.00,Wunderground v.1.15,2013-12-29 11:30:00,
2013-12-29 05:35:00,-4.3,-8.9,30.37,NW,321,7.0,7.0,80,0.00,,,0.00,Wunderground v.1.15,2013-12-29 11:35:00,
2013-12-29 05:45:00,-4.5,-9.1,30.38,NNW,329,6.0,7.0,80,0.00,,,0.00,Wunderground v.1.15,2013-12-29 11:45:00,
2013-12-29 05:50:00,-4.8,-9.7,30.38,NW,322,6.0,8.0,79,0.00,,,0.00,Wunderground v.1.15,2013-12-29 11:50:00,
2013-12-29 06:00:00,-5.2,-9.8,30.38,NNW,331,6.0,7.0,80,0.00,,,0.00,Wunderground v.1.15,2013-12-29 12:00:00,
2013-12-29 06:05:00,-5.4,-10.0,30.40,North,359,7.0,7.0,80,0.00,,,0.00,Wunderground v.1.15,2013-12-29 12:05:00,
2013-12-29 06:15:00,-5.8,-10.6,30.41,NNW,337,7.0,8.0,79,0.00,,,0.00,Wunderground v.1.15,2013-12-29 12:15:00,
2013-12-29 06:25:00,-6.3,-8.7,30.41,NW,307,8.0,8.0,89,0.00,,,0.00,Wunderground v.1.15,2013-12-29 12:25:00,
2013-12-29 06:35:00,-6.6,-11.7,30.41,NNW,342,7.0,8.0,78,0.00,,,0.00,Wunderground v.1.15,2013-12-29 12:35:00,
2013-12-29 06:40:00,-6.8,-11.9,30.41,North,9,6.0,6.0,78,0.00,,,0.00,Wunderground v.1.15,2013-12-29 12:40:00,
2013-12-29 06:50:00,-7.0,-12.1,30.41,North,10,5.0,5.0,78,0.00,,,0.00,Wunderground v.1.15,2013-12-29 12:50:00,
2013-12-29 07:00:00,-7.2,-12.2,30.41,North,4,5.0,5.0,78,0.00,,,0.00,Wunderground v.1.15,2013-12-29 13:00:00,
2013-12-29 07:05:00,-7.3,-12.3,30.42,NNW,338,4.0,5.0,78,0.00,,,0.00,Wunderground v.1.15,2013-12-29 13:05:00,
2013-12-29 07:15:00,-7.7,-12.7,30.41,NNE,12,5.0,8.0,78,0.00,,,0.00,Wunderground v.1.15,2013-12-29 13:15:00,
2013-12-29 07:25:00,-7.9,-12.9,30.42,NNE,23,5.0,6.0,78,0.00,,,0.00,Wunderground v.1.15,2013-12-29 13:25:00,
2013-12-29 07:35:00,-8.1,-13.4,30.42,North,354,7.0,12.0,77,0.00,,,0.00,Wunderground v.1.15,2013-12-29 13:35:00,
2013-12-29 07:40:00,-8.3,-13.6,30.43,North,359,8.0,8.0,77,0.00,,,0.00,Wunderground v.1.15,2013-12-29 13:40:00,
2013-12-29 07:50:00,-8.5,-13.8,30.42,North,349,6.0,6.0,77,0.00,,,0.00,Wunderground v.1.15,2013-12-29 13:50:00,
2013-12-29 07:55:00,-8.6,-13.9,30.43,NW,322,6.0,12.0,77,0.00,,,0.00,Wunderground v.1.15,2013-12-29 13:55:00,
2013-12-29 08:05:00,-9.0,-14.3,30.44,NNW,343,6.0,8.0,77,0.00,,,0.00,Wunderground v.1.15,2013-12-29 14:05:00,
2013-12-29 08:15:00,-9.2,-14.5,30.44,NW,312,7.0,8.0,77,0.00,,,0.00,Wunderground v.1.15,2013-12-29 14:15:00,
2013-12-29 08:25:00,-9.3,-14.6,30.45,North,354,6.0,6.0,77,0.00,,,0.00,Wunderground v.1.15,2013-12-29 14:25:00,
2013-12-29 08:30:00,-9.2,-14.5,30.46,NNW,341,5.0,5.0,77,0.00,,,0.00,Wunderground v.1.15,2013-12-29 14:30:00,
2013-12-29 08:40:00,-9.1,-14.6,30.45,NW,321,5.0,6.0,76,0.00,,,0.00,Wunderground v.1.15,2013-12-29 14:40:00,
2013-12-29 08:50:00,-9.3,-14.8,30.46,WNW,300,6.0,7.0,76,0.00,,,0.00,Wunderground v.1.15,2013-12-29 14:50:00,
2013-12-29 09:00:00,-9.3,-15.1,30.46,North,354,6.0,6.0,75,0.00,,,0.00,Wunderground v.1.15,2013-12-29 15:00:00,
2013-12-29 09:05:00,-9.1,-14.9,30.46,NNW,339,6.0,10.0,75,0.00,,,0.00,Wunderground v.1.15,2013-12-29 15:05:00,
2013-12-29 09:15:00,-9.1,-15.4,30.47,NW,312,7.0,8.0,73,0.00,,,0.00,Wunderground v.1.15,2013-12-29 15:15:00,
2013-12-29 09:25:00,-9.0,-15.3,30.47,NNW,341,6.0,7.0,73,0.00,,,0.00,Wunderground v.1.15,2013-12-29 15:25:00,
2013-12-29 09:35:00,-8.8,-15.1,30.48,NW,320,6.0,7.0,73,0.00,,,0.00,Wunderground v.1.15,2013-12-29 15:35:00,
2013-12-29 09:40:00,-8.8,-15.4,30.48,NNE,18,6.0,6.0,72,0.00,,,0.00,Wunderground v.1.15,2013-12-29 15:40:00,
2013-12-29 09:50:00,-8.8,-15.4,30.48,WNW,294,7.0,7.0,72,0.00,,,0.00,Wunderground v.1.15,2013-12-29 15:50:00,
2013-12-29 09:55:00,-8.6,-15.2,30.48,NNW,330,7.0,8.0,72,0.00,,,0.00,Wunderground v.1.15,2013-12-29 15:55:00,
2013-12-29 10:05:00,-8.1,-14.7,30.48,NW,307,6.0,6.0,72,0.00,,,0.00,Wunderground v.1.15,2013-12-29 16:05:00,
2013-12-29 10:15:00,-7.1,-14.0,30.48,NNW,328,5.0,8.0,71,0.00,,,0.00,Wunderground v.1.15,2013-12-29 16:15:00,
2013-12-29 10:25:00,-6.6,-13.8,30.49,NNW,345,6.0,7.0,70,0.00,,,0.00,Wunderground v.1.15,2013-12-29 16:25:00,
2013-12-29 10:35:00,-6.5,-13.7,30.49,NNE,17,6.0,8.0,70,0.00,,,0.00,Wunderground v.1.15,2013-12-29 16:35:00,
2013-12-29 10:40:00,-6.4,-13.9,30.49,NNW,328,7.0,7.0,69,0.00,,,0.00,Wunderground v.1.15,2013-12-29 16:40:00,
2013-12-29 10:50:00,-5.9,-13.4,30.49,WNW,282,6.0,6.0,69,0.00,,,0.00,Wunderground v.1.15,2013-12-29 16:50:00,
2013-12-29 10:55:00,-5.9,-13.4,30.49,NW,305,5.0,6.0,69,0.00,,,0.00,Wunderground v.1.15,2013-12-29 16:55:00,
2013-12-29 11:05:00,-6.1,-13.9,30.49,NW,311,5.0,9.0,68,0.00,,,0.00,Wunderground v.1.15,2013-12-29 17:05:00,
2013-12-29 11:15:00,-5.9,-13.4,30.49,WNW,301,5.0,12.0,69,0.00,,,0.00,Wunderground v.1.15,2013-12-29 17:15:00,
2013-12-29 11:25:00,-6.0,-13.8,30.49,WNW,284,6.0,6.0,68,0.00,,,0.00,Wunderground v.1.15,2013-12-29 17:25:00,
2013-12-29 11:35:00,-5.7,-13.5,30.49,NNW,343,6.0,6.0,68,0.00,,,0.00,Wunderground v.1.15,2013-12-29 17:35:00,
2013-12-29 11:45:00,-5.0,-12.6,30.49,NW,324,5.0,8.0,69,0.00,,,0.00,Wunderground v.1.15,2013-12-29 17:45:00,
2013-12-29 11:50:00,-5.1,-13.0,30.48,NNW,335,5.0,6.0,68,0.00,,,0.00,Wunderground v.1.15,2013-12-29 17:50:00,
2013-12-29 12:00:00,-5.3,-13.2,30.48,NNE,14,5.0,5.0,68,0.00,,,0.00,Wunderground v.1.15,2013-12-29 18:00:00,
2013-12-29 12:05:00,-5.0,-12.9,30.48,NW,322,5.0,9.0,68,0.00,,,0.00,Wunderground v.1.15,2013-12-29 18:05:00,
2013-12-29 12:15:00,-5.0,-13.2,30.48,NNE,16,6.0,7.0,67,0.00,,,0.00,Wunderground v.1.15,2013-12-29 18:15:00,
2013-12-29 12:20:00,-5.1,-13.6,30.48,NNW,342,6.0,7.0,66,0.00,,,0.00,Wunderground v.1.15,2013-12-29 18:20:00,
2013-12-29 12:30:00,-4.2,-12.4,30.47,NNW,337,4.0,4.0,67,0.00,,,0.00,Wunderground v.1.15,2013-12-29 18:30:00,
2013-12-29 12:35:00,-4.4,-12.9,30.47,NW,316,5.0,7.0,66,0.00,,,0.00,Wunderground v.1.15,2013-12-29 18:35:00,
2013-12-29 12:40:00,-4.7,-12.9,30.47,WNW,303,6.0,6.0,67,0.00,,,0.00,Wunderground v.1.15,2013-12-29 18:40:00,
2013-12-29 12:50:00,-4.3,-12.8,30.47,NW,320,4.0,4.0,66,0.00,,,0.00,Wunderground v.1.15,2013-12-29 18:50:00,
2013-12-29 12:55:00,-4.4,-12.6,30.47,NW,323,6.0,9.0,67,0.00,,,0.00,Wunderground v.1.15,2013-12-29 18:55:00,
2013-12-29 13:05:00,-4.4,-12.9,30.47,NW,325,6.0,6.0,66,0.00,,,0.00,Wunderground v.1.15,2013-12-29 19:05:00,
2013-12-29 13:15:00,-3.9,-11.8,30.46,NW,318,5.0,6.0,68,0.00,,,0.00,Wunderground v.1.15,2013-12-29 19:15:00,
2013-12-29 13:25:00,-3.4,-11.6,30.46,NW,323,4.0,4.0,67,0.00,,,0.00,Wunderground v.1.15,2013-12-29 19:25:00,
2013-12-29 13:30:00,-3.5,-11.7,30.46,NW,314,4.0,4.0,67,0.00,,,0.00,Wunderground v.1.15,2013-12-29 19:30:00,
2013-12-29 13:40:00,-3.1,-11.3,30.45,WNW,297,3.0,5.0,67,0.00,,,0.00,Wunderground v.1.15,2013-12-29 19:40:00,
2013-12-29 13:45:00,-3.4,-11.6,30.45,WNW,293,4.0,5.0,67,0.00,,,0.00,Wunderground v.1.15,2013-12-29 19:45:00,
2013-12-29 13:55:00,-3.3,-11.5,30.45,North,354,5.0,6.0,67,0.00,,,0.00,Wunderground v.1.15,2013-12-29 19:55:00,
2013-12-29 14:00:00,-3.4,-11.9,30.45,NNW,336,5.0,5.0,66,0.00,,,0.00,Wunderground v.1.15,2013-12-29 20:00:00,
2013-12-29 14:05:00,-3.2,-11.4,30.46,NW,306,5.0,8.0,67,0.00,,,0.00,Wunderground v.1.15,2013-12-29 20:05:00,
2013-12-29 14:15:00,-2.8,-11.4,30.46,WNW,295,5.0,5.0,66,0.00,,,0.00,Wunderground v.1.15,2013-12-29 20:15:00,
2013-12-29 14:20:00,-2.8,-11.4,30.46,West,265,5.0,9.0,66,0.00,,,0.00,Wunderground v.1.15,2013-12-29 20:20:00,
2013-12-29 14:30:00,-3.2,-12.0,30.46,WNW,299,7.0,8.0,65,0.00,,,0.00,Wunderground v.1.15,2013-12-29 20:30:00,
2013-12-29 14:35:00,-3.2,-12.4,30.45,WNW,288,6.0,8.0,64,0.00,,,0.00,Wunderground v.1.15,2013-12-29 20:35:00,
2013-12-29 14:45:00,-3.1,-12.6,30.45,NW,318,6.0,7.0,63,0.00,,,0.00,Wunderground v.1.15,2013-12-29 20:45:00,
2013-12-29 14:50:00,-2.7,-12.2,30.45,NW,320,4.0,4.0,63,0.00,,,0.00,Wunderground v.1.15,2013-12-29 20:50:00,
2013-12-29 15:00:00,-2.3,-11.5,30.46,NW,320,3.0,3.0,64,0.00,,,0.00,Wunderground v.1.15,2013-12-29 21:00:00,
2013-12-29 15:05:00,-2.1,-11.3,30.45,WNW,301,3.0,4.0,64,0.00,,,0.00,Wunderground v.1.15,2013-12-29 21:05:00,
2013-12-29 15:15:00,-1.8,-11.0,30.46,WNW,295,4.0,4.0,64,0.00,,,0.00,Wunderground v.1.15,2013-12-29 21:15:00,
2013-12-29 15:25:00,-2.3,-12.1,30.46,NW,310,5.0,5.0,62,0.00,,,0.00,Wunderground v.1.15,2013-12-29 21:25:00,
2013-12-29 15:35:00,-2.5,-12.7,30.46,NW,320,5.0,5.0,61,0.00,,,0.00,Wunderground v.1.15,2013-12-29 21:35:00,
2013-12-29 15:40:00,-2.5,-13.3,30.47,NNW,334,5.0,5.0,59,0.00,,,0.00,Wunderground v.1.15,2013-12-29 21:40:00,
2013-12-29 15:50:00,-2.6,-13.1,30.46,NW,314,4.0,4.0,60,0.00,,,0.00,Wunderground v.1.15,2013-12-29 21:50:00,
2013-12-29 16:00:00,-3.0,-13.1,30.47,NW,312,5.0,5.0,61,0.00,,,0.00,Wunderground v.1.15,2013-12-29 22:00:00,
2013-12-29 16:05:00,-3.3,-13.4,30.46,NW,314,5.0,5.0,61,0.00,,,0.00,Wunderground v.1.15,2013-12-29 22:05:00,
2013-12-29 16:15:00,-3.6,-13.4,30.46,WNW,298,4.0,6.0,62,0.00,,,0.00,Wunderground v.1.15,2013-12-29 22:15:00,
2013-12-29 16:25:00,-4.3,-12.5,30.46,NNW,329,6.0,7.0,67,0.00,,,0.00,Wunderground v.1.15,2013-12-29 22:25:00,
2013-12-29 16:30:00,-4.7,-12.6,30.45,NW,315,6.0,6.0,68,0.00,,,0.00,Wunderground v.1.15,2013-12-29 22:30:00,
2013-12-29 16:40:00,-5.4,-13.0,30.45,NW,308,4.0,4.0,69,0.00,,,0.00,Wunderground v.1.15,2013-12-29 22:40:00,
2013-12-29 16:50:00,-5.8,-12.8,30.45,NW,318,3.0,4.0,71,0.00,,,0.00,Wunderground v.1.15,2013-12-29 22:50:00,
2013-12-29 16:55:00,-6.0,-13.3,30.45,WNW,286,2.0,5.0,70,0.00,,,0.00,Wunderground v.1.15,2013-12-29 22:55:00,
2013-12-29 17:05:00,-6.4,-13.6,30.44,West,272,3.0,5.0,70,0.00,,,0.00,Wunderground v.1.15,2013-12-29 23:05:00,
2013-12-29 17:15:00,-6.8,-14.0,30.44,WNW,291,4.0,4.0,70,0.00,,,0.00,Wunderground v.1.15,2013-12-29 23:15:00,
2013-12-29 17:25:00,-7.2,-13.8,30.45,WNW,285,3.0,5.0,72,0.00,,,0.00,Wunderground v.1.15,2013-12-29 23:25:00,
2013-12-29 17:30:00,-7.3,-13.9,30.45,WNW,303,3.0,3.0,72,0.00,,,0.00,Wunderground v.1.15,2013-12-29 23:30:00,
2013-12-29 17:40:00,-7.6,-14.5,30.45,WNW,291,4.0,4.0,71,0.00,,,0.00,Wunderground v.1.15,2013-12-29 23:40:00,
2013-12-29 17:50:00,-7.9,-14.8,30.46,WNW,289,5.0,5.0,71,0.00,,,0.00,Wunderground v.1.15,2013-12-29 23:50:00,
2013-12-29 18:00:00,-8.0,-14.6,30.46,WNW,292,4.0,4.0,72,0.00,,,0.00,Wunderground v.1.15,2013-12-30 00:00:00,
2013-12-29 18:05:00,-8.1,-14.7,30.46,WNW,292,3.0,4.0,72,0.00,,,0.00,Wunderground v.1.15,2013-12-30 00:05:00,
2013-12-29 18:15:00,-8.4,-15.0,30.46,WNW,300,2.0,4.0,72,0.00,,,0.00,Wunderground v.1.15,2013-12-30 00:15:00,
2013-12-29 18:25:00,-8.5,-14.8,30.46,NW,319,3.0,3.0,73,0.00,,,0.00,Wunderground v.1.15,2013-12-30 00:25:00,
2013-12-29 18:35:00,-8.7,-15.0,30.45,NW,304,2.0,3.0,73,0.00,,,0.00,Wunderground v.1.15,2013-12-30 00:35:00,
2013-12-29 18:45:00,-8.8,-15.1,30.45,WNW,291,1.0,1.0,73,0.00,,,0.00,Wunderground v.1.15,2013-12-30 00:45:00,
2013-12-29 18:50:00,-8.9,-15.2,30.45,WNW,291,0.0,1.0,73,0.00,,,0.00,Wunderground v.1.15,2013-12-30 00:50:00,
2013-12-29 19:00:00,-9.2,-15.5,30.45,WNW,293,1.0,2.0,73,0.00,,,0.00,Wunderground v.1.15,2013-12-30 01:00:00,
2013-12-29 19:05:00,-9.4,-15.7,30.45,WNW,282,2.0,4.0,73,0.00,,,0.00,Wunderground v.1.15,2013-12-30 01:05:00,
2013-12-29 19:15:00,-9.7,-16.0,30.45,WNW,293,3.0,4.0,73,0.00,,,0.00,Wunderground v.1.15,2013-12-30 01:15:00,
2013-12-29 19:25:00,-9.9,-15.9,30.46,West,275,2.0,4.0,74,0.00,,,0.00,Wunderground v.1.15,2013-12-30 01:25:00,
2013-12-29 19:35:00,-10.2,-16.5,30.46,WNW,293,3.0,3.0,73,0.00,,,0.00,Wunderground v.1.15,2013-12-30 01:35:00,
2013-12-29 19:40:00,-10.3,-16.3,30.46,WNW,287,3.0,3.0,74,0.00,,,0.00,Wunderground v.1.15,2013-12-30 01:40:00,
2013-12-29 19:45:00,-10.3,-16.3,30.46,WNW,293,3.0,3.0,74,0.00,,,0.00,Wunderground v.1.15,2013-12-30 01:45:00,
2013-12-29 19:50:00,-10.4,-16.4,30.46,WNW,288,2.0,2.0,74,0.00,,,0.00,Wunderground v.1.15,2013-12-30 01:50:00,
2013-12-29 20:00:00,-10.5,-16.2,30.46,WNW,287,1.0,1.0,75,0.00,,,0.00,Wunderground v.1.15,2013-12-30 02:00:00,
2013-12-29 20:05:00,-10.7,-16.7,30.46,WNW,283,1.0,1.0,74,0.00,,,0.00,Wunderground v.1.15,2013-12-30 02:05:00,
2013-12-29 20:15:00,-10.7,-16.4,30.46,West,260,2.0,3.0,75,0.00,,,0.00,Wunderground v.1.15,2013-12-30 02:15:00,
2013-12-29 20:25:00,-10.7,-16.4,30.46,WNW,283,1.0,2.0,75,0.00,,,0.00,Wunderground v.1.15,2013-12-30 02:25:00,
2013-12-29 20:35:00,-10.8,-16.5,30.46,WNW,286,2.0,2.0,75,0.00,,,0.00,Wunderground v.1.15,2013-12-30 02:35:00,
2013-12-29 20:40:00,-10.7,-16.2,30.46,West,276,1.0,3.0,76,0.00,,,0.00,Wunderground v.1.15,2013-12-30 02:40:00,
2013-12-29 20:50:00,-10.8,-16.3,30.46,West,262,2.0,3.0,76,0.00,,,0.00,Wunderground v.1.15,2013-12-30 02:50:00,
2013-12-29 20:55:00,-11.0,-16.5,30.46,West,272,2.0,3.0,76,0.00,,,0.00,Wunderground v.1.15,2013-12-30 02:55:00,
2013-12-29 21:05:00,-11.2,-16.7,30.46,West,279,2.0,2.0,76,0.00,,,0.00,Wunderground v.1.15,2013-12-30 03:05:00,
2013-12-29 21:15:00,-11.3,-16.5,30.46,West,278,1.0,1.0,77,0.00,,,0.00,Wunderground v.1.15,2013-12-30 03:15:00,
2013-12-29 21:25:00,-11.3,-16.5,30.46,West,280,1.0,3.0,77,0.00,,,0.00,Wunderground v.1.15,2013-12-30 03:25:00,
2013-12-29 21:30:00,-11.3,-16.5,30.46,WNW,289,1.0,1.0,77,0.00,,,0.00,Wunderground v.1.15,2013-12-30 03:30:00,
2013-12-29 21:40:00,-11.4,-16.6,30.45,West,279,1.0,1.0,77,0.00,,,0.00,Wunderground v.1.15,2013-12-30 03:40:00,
2013-12-29 21:45:00,-11.4,-16.3,30.45,West,279,0.0,1.0,78,0.00,,,0.00,Wunderground v.1.15,2013-12-30 03:45:00,
2013-12-29 21:55:00,-11.5,-16.4,30.45,West,279,0.0,0.0,78,0.00,,,0.00,Wunderground v.1.15,2013-12-30 03:55:00,
2013-12-29 22:05:00,-11.5,-16.4,30.45,West,279,0.0,1.0,78,0.00,,,0.00,Wunderground v.1.15,2013-12-30 04:05:00,
2013-12-29 22:15:00,-11.5,-16.4,30.45,West,279,0.0,0.0,78,0.00,,,0.00,Wunderground v.1.15,2013-12-30 04:15:00,
2013-12-29 22:20:00,-11.5,-16.4,30.45,West,279,0.0,0.0,78,0.00,,,0.00,Wunderground v.1.15,2013-12-30 04:20:00,
2013-12-29 22:30:00,-11.7,-16.6,30.45,West,279,0.0,0.0,78,0.00,,,0.00,Wunderground v.1.15,2013-12-30 04:30:00,
2013-12-29 22:35:00,-11.7,-16.6,30.45,West,279,0.0,0.0,78,0.00,,,0.00,Wunderground v.1.15,2013-12-30 04:35:00,
2013-12-29 22:45:00,-11.7,-16.6,30.45,West,279,0.0,0.0,78,0.00,,,0.00,Wunderground v.1.15,2013-12-30 04:45:00,
2013-12-29 22:50:00,-11.6,-16.5,30.46,West,279,0.0,0.0,78,0.00,,,0.00,Wunderground v.1.15,2013-12-30 04:50:00,
2013-12-29 23:00:00,-12.0,-16.9,30.45,West,279,0.0,0.0,78,0.00,,,0.00,Wunderground v.1.15,2013-12-30 05:00:00,
2013-12-29 23:05:00,-12.1,-17.0,30.45,West,278,0.0,0.0,78,0.00,,,0.00,Wunderground v.1.15,2013-12-30 05:05:00,
2013-12-29 23:10:00,-12.1,-17.0,30.45,WSW,245,0.0,1.0,78,0.00,,,0.00,Wunderground v.1.15,2013-12-30 05:10:00,
2013-12-29 23:15:00,-12.2,-17.1,30.46,WSW,245,0.0,1.0,78,0.00,,,0.00,Wunderground v.1.15,2013-12-30 05:15:00,
2013-12-29 23:25:00,-12.4,-17.3,30.46,WSW,245,1.0,2.0,78,0.00,,,0.00,Wunderground v.1.15,2013-12-30 05:25:00,
2013-12-29 23:30:00,-12.4,-17.1,30.46,WSW,243,1.0,1.0,79,0.00,,,0.00,Wunderground v.1.15,2013-12-30 05:30:00,
2013-12-29 23:40:00,-12.4,-17.1,30.46,SW,236,0.0,0.0,79,0.00,,,0.00,Wunderground v.1.15,2013-12-30 05:40:00,
2013-12-29 23:50:00,-12.2,-16.9,30.46,SW,236,0.0,0.0,79,0.00,,,0.00,Wunderground v.1.15,2013-12-30 05:50:00,